sensor_id;sensor_type;location;lat;lon;timestamp;temperature;humidity
44277;DHT22;29973;43.742;1.236;2023-02-28T00:00:23;0.10;99.90
44277;DHT22;29973;43.742;1.236;2023-02-28T00:02:49;-0.10;99.90
44277;DHT22;29973;43.742;1.236;2023-02-28T00:05:18;-0.30;99.90
44277;DHT22;29973;43.742;1.236;2023-02-28T00:07:44;-0.20;99.90
44277;DHT22;29973;43.742;1.236;2023-02-28T00:10:13;-0.20;99.90
44277;DHT22;29973;43.742;1.236;2023-02-28T00:12:39;-0.30;99.90
44277;DHT22;29973;43.742;1.236;2023-02-28T00:15:06;-0.30;99.90
44277;DHT22;29973;43.742;1.236;2023-02-28T00:17:32;-0.20;99.90
44277;DHT22;29973;43.742;1.236;2023-02-28T00:19:59;-0.20;99.90
44277;DHT22;29973;43.742;1.236;2023-02-28T00:22:28;-0.20;99.90
44277;DHT22;29973;43.742;1.236;2023-02-28T00:24:54;-0.20;99.90
44277;DHT22;29973;43.742;1.236;2023-02-28T00:27:20;-0.40;99.90
44277;DHT22;29973;43.742;1.236;2023-02-28T00:29:46;-0.30;99.90
44277;DHT22;29973;43.742;1.236;2023-02-28T00:32:12;-0.30;99.90
44277;DHT22;29973;43.742;1.236;2023-02-28T00:34:38;-0.30;99.90
44277;DHT22;29973;43.742;1.236;2023-02-28T00:37:09;-0.50;99.90
44277;DHT22;29973;43.742;1.236;2023-02-28T00:39:36;-0.50;99.90
44277;DHT22;29973;43.742;1.236;2023-02-28T00:42:03;-0.50;99.90
44277;DHT22;29973;43.742;1.236;2023-02-28T00:44:29;-0.50;99.90
44277;DHT22;29973;43.742;1.236;2023-02-28T00:46:55;-0.50;99.90
44277;DHT22;29973;43.742;1.236;2023-02-28T00:49:22;-0.50;99.90
44277;DHT22;29973;43.742;1.236;2023-02-28T00:51:48;-0.60;99.90
44277;DHT22;29973;43.742;1.236;2023-02-28T00:54:15;-0.60;99.90
44277;DHT22;29973;43.742;1.236;2023-02-28T00:56:41;-0.50;99.90
44277;DHT22;29973;43.742;1.236;2023-02-28T00:59:06;-0.50;99.90
44277;DHT22;29973;43.742;1.236;2023-02-28T01:01:32;-0.50;99.90
44277;DHT22;29973;43.742;1.236;2023-02-28T01:03:58;-0.40;99.90
44277;DHT22;29973;43.742;1.236;2023-02-28T01:06:24;-0.40;99.90
44277;DHT22;29973;43.742;1.236;2023-02-28T01:08:49;-0.40;99.90
44277;DHT22;29973;43.742;1.236;2023-02-28T01:11:16;-0.30;99.90
44277;DHT22;29973;43.742;1.236;2023-02-28T01:13:43;-0.40;99.90
44277;DHT22;29973;43.742;1.236;2023-02-28T01:16:09;-0.50;99.90
44277;DHT22;29973;43.742;1.236;2023-02-28T01:18:36;-0.40;99.90
44277;DHT22;29973;43.742;1.236;2023-02-28T01:21:10;-0.50;99.90
44277;DHT22;29973;43.742;1.236;2023-02-28T01:23:36;-0.50;99.90
44277;DHT22;29973;43.742;1.236;2023-02-28T01:26:11;-0.50;99.90
44277;DHT22;29973;43.742;1.236;2023-02-28T01:28:37;-0.10;99.90
44277;DHT22;29973;43.742;1.236;2023-02-28T01:31:03;-0.30;99.90
44277;DHT22;29973;43.742;1.236;2023-02-28T01:33:29;-0.30;99.90
44277;DHT22;29973;43.742;1.236;2023-02-28T01:35:59;-0.30;99.90
44277;DHT22;29973;43.742;1.236;2023-02-28T01:38:26;-0.40;99.90
44277;DHT22;29973;43.742;1.236;2023-02-28T01:40:52;-0.40;99.90
44277;DHT22;29973;43.742;1.236;2023-02-28T01:43:30;-0.40;99.90
44277;DHT22;29973;43.742;1.236;2023-02-28T01:45:58;-0.30;99.90
44277;DHT22;29973;43.742;1.236;2023-02-28T01:48:27;-0.20;99.90
44277;DHT22;29973;43.742;1.236;2023-02-28T01:50:55;-0.30;99.90
44277;DHT22;29973;43.742;1.236;2023-02-28T01:53:26;-0.20;99.90
44277;DHT22;29973;43.742;1.236;2023-02-28T01:55:56;-0.20;99.90
44277;DHT22;29973;43.742;1.236;2023-02-28T01:58:22;-0.30;99.90
44277;DHT22;29973;43.742;1.236;2023-02-28T02:00:48;-0.30;99.90
44277;DHT22;29973;43.742;1.236;2023-02-28T02:03:16;-0.30;99.90
44277;DHT22;29973;43.742;1.236;2023-02-28T02:05:47;-0.30;99.90
44277;DHT22;29973;43.742;1.236;2023-02-28T02:08:19;-0.30;99.90
44277;DHT22;29973;43.742;1.236;2023-02-28T02:10:45;-0.20;99.90
44277;DHT22;29973;43.742;1.236;2023-02-28T02:35:41;0.20;99.90
44277;DHT22;29973;43.742;1.236;2023-02-28T02:38:04;0.30;99.90
44277;DHT22;29973;43.742;1.236;2023-02-28T02:40:41;0.30;99.90
44277;DHT22;29973;43.742;1.236;2023-02-28T02:43:31;0.30;99.90
44277;DHT22;29973;43.742;1.236;2023-02-28T02:46:06;0.30;99.90
44277;DHT22;29973;43.742;1.236;2023-02-28T02:48:35;0.50;99.90
44277;DHT22;29973;43.742;1.236;2023-02-28T02:51:07;0.50;99.90
44277;DHT22;29973;43.742;1.236;2023-02-28T02:53:46;0.50;99.90
44277;DHT22;29973;43.742;1.236;2023-02-28T02:56:16;0.60;99.90
44277;DHT22;29973;43.742;1.236;2023-02-28T02:58:45;0.60;99.90
44277;DHT22;29973;43.742;1.236;2023-02-28T03:01:17;0.60;99.90
44277;DHT22;29973;43.742;1.236;2023-02-28T03:04:06;0.60;99.90
44277;DHT22;29973;43.742;1.236;2023-02-28T03:06:32;0.70;99.90
44277;DHT22;29973;43.742;1.236;2023-02-28T03:09:00;0.70;99.90
44277;DHT22;29973;43.742;1.236;2023-02-28T03:11:26;0.70;99.90
44277;DHT22;29973;43.742;1.236;2023-02-28T03:16:34;0.70;99.90
44277;DHT22;29973;43.742;1.236;2023-02-28T03:24:13;0.80;99.90
44277;DHT22;29973;43.742;1.236;2023-02-28T03:26:46;0.80;99.90
44277;DHT22;29973;43.742;1.236;2023-02-28T03:30:04;0.90;99.90
44277;DHT22;29973;43.742;1.236;2023-02-28T03:35:11;0.90;99.90
44277;DHT22;29973;43.742;1.236;2023-02-28T03:37:41;0.90;99.90
44277;DHT22;29973;43.742;1.236;2023-02-28T03:40:15;0.90;99.90
44277;DHT22;29973;43.742;1.236;2023-02-28T03:42:45;0.90;99.90
44277;DHT22;29973;43.742;1.236;2023-02-28T03:45:32;0.90;99.90
44277;DHT22;29973;43.742;1.236;2023-02-28T03:48:05;0.90;99.90
44277;DHT22;29973;43.742;1.236;2023-02-28T03:50:38;0.90;99.90
44277;DHT22;29973;43.742;1.236;2023-02-28T03:53:11;0.90;99.90
44277;DHT22;29973;43.742;1.236;2023-02-28T03:55:45;0.90;99.90
44277;DHT22;29973;43.742;1.236;2023-02-28T03:58:38;1.00;99.90
44277;DHT22;29973;43.742;1.236;2023-02-28T04:03:37;1.00;99.90
44277;DHT22;29973;43.742;1.236;2023-02-28T04:06:06;0.90;99.90
44277;DHT22;29973;43.742;1.236;2023-02-28T04:08:32;1.00;99.90
44277;DHT22;29973;43.742;1.236;2023-02-28T04:11:16;1.00;99.90
44277;DHT22;29973;43.742;1.236;2023-02-28T04:13:43;1.00;99.90
44277;DHT22;29973;43.742;1.236;2023-02-28T04:16:09;1.00;99.90
44277;DHT22;29973;43.742;1.236;2023-02-28T04:18:39;1.00;99.90
44277;DHT22;29973;43.742;1.236;2023-02-28T04:21:06;1.00;99.90
44277;DHT22;29973;43.742;1.236;2023-02-28T04:23:32;1.00;99.90
44277;DHT22;29973;43.742;1.236;2023-02-28T04:25:58;1.00;99.90
44277;DHT22;29973;43.742;1.236;2023-02-28T04:28:24;1.00;99.90
44277;DHT22;29973;43.742;1.236;2023-02-28T04:30:57;1.00;99.90
44277;DHT22;29973;43.742;1.236;2023-02-28T04:33:23;1.00;99.90
44277;DHT22;29973;43.742;1.236;2023-02-28T04:36:01;1.00;99.90
44277;DHT22;29973;43.742;1.236;2023-02-28T04:38:28;1.00;99.90
44277;DHT22;29973;43.742;1.236;2023-02-28T04:40:57;1.00;99.90
44277;DHT22;29973;43.742;1.236;2023-02-28T04:43:23;0.90;99.90
44277;DHT22;29973;43.742;1.236;2023-02-28T04:45:48;0.90;99.90
44277;DHT22;29973;43.742;1.236;2023-02-28T04:48:14;0.90;99.90
44277;DHT22;29973;43.742;1.236;2023-02-28T04:50:40;0.90;99.90
44277;DHT22;29973;43.742;1.236;2023-02-28T04:53:06;0.90;99.90
44277;DHT22;29973;43.742;1.236;2023-02-28T04:55:32;0.90;99.90
44277;DHT22;29973;43.742;1.236;2023-02-28T04:57:57;0.90;99.90
44277;DHT22;29973;43.742;1.236;2023-02-28T05:00:23;0.90;99.90
44277;DHT22;29973;43.742;1.236;2023-02-28T05:02:49;0.90;99.90
44277;DHT22;29973;43.742;1.236;2023-02-28T05:05:15;0.80;99.90
44277;DHT22;29973;43.742;1.236;2023-02-28T05:07:44;0.80;99.90
44277;DHT22;29973;43.742;1.236;2023-02-28T05:10:10;0.80;99.90
44277;DHT22;29973;43.742;1.236;2023-02-28T05:12:36;0.60;99.90
44277;DHT22;29973;43.742;1.236;2023-02-28T05:15:03;0.50;99.90
44277;DHT22;29973;43.742;1.236;2023-02-28T05:17:30;0.50;99.90
44277;DHT22;29973;43.742;1.236;2023-02-28T05:19:56;0.50;99.90
44277;DHT22;29973;43.742;1.236;2023-02-28T05:22:22;0.40;99.90
44277;DHT22;29973;43.742;1.236;2023-02-28T05:24:48;0.20;99.90
44277;DHT22;29973;43.742;1.236;2023-02-28T05:27:13;0.00;99.90
44277;DHT22;29973;43.742;1.236;2023-02-28T05:29:39;-0.10;99.90
44277;DHT22;29973;43.742;1.236;2023-02-28T05:32:10;-0.20;99.90
44277;DHT22;29973;43.742;1.236;2023-02-28T05:34:39;-0.10;99.90
44277;DHT22;29973;43.742;1.236;2023-02-28T05:37:12;-0.30;99.90
44277;DHT22;29973;43.742;1.236;2023-02-28T05:39:38;-0.30;99.90
44277;DHT22;29973;43.742;1.236;2023-02-28T05:42:04;-0.40;99.90
44277;DHT22;29973;43.742;1.236;2023-02-28T05:44:30;-0.40;99.90
44277;DHT22;29973;43.742;1.236;2023-02-28T05:46:56;-0.50;99.90
44277;DHT22;29973;43.742;1.236;2023-02-28T05:49:22;-0.40;99.90
44277;DHT22;29973;43.742;1.236;2023-02-28T05:51:48;-0.40;99.90
44277;DHT22;29973;43.742;1.236;2023-02-28T05:54:14;-0.40;99.90
44277;DHT22;29973;43.742;1.236;2023-02-28T05:56:39;-0.50;99.90
44277;DHT22;29973;43.742;1.236;2023-02-28T05:59:06;-0.50;99.90
44277;DHT22;29973;43.742;1.236;2023-02-28T06:01:34;-0.60;99.90
44277;DHT22;29973;43.742;1.236;2023-02-28T06:04:01;-0.70;99.90
44277;DHT22;29973;43.742;1.236;2023-02-28T06:06:27;-0.60;99.90
44277;DHT22;29973;43.742;1.236;2023-02-28T06:08:53;-0.80;99.90
44277;DHT22;29973;43.742;1.236;2023-02-28T06:11:19;-0.80;99.90
44277;DHT22;29973;43.742;1.236;2023-02-28T06:13:46;-1.10;99.90
44277;DHT22;29973;43.742;1.236;2023-02-28T06:16:12;-0.90;99.90
44277;DHT22;29973;43.742;1.236;2023-02-28T06:18:38;-0.90;99.90
44277;DHT22;29973;43.742;1.236;2023-02-28T06:21:04;-1.10;99.90
44277;DHT22;29973;43.742;1.236;2023-02-28T06:23:34;-0.80;99.90
44277;DHT22;29973;43.742;1.236;2023-02-28T06:26:00;-0.90;99.90
44277;DHT22;29973;43.742;1.236;2023-02-28T06:28:25;-0.90;99.90
44277;DHT22;29973;43.742;1.236;2023-02-28T06:30:51;-0.80;99.90
44277;DHT22;29973;43.742;1.236;2023-02-28T06:33:17;-0.70;99.90
44277;DHT22;29973;43.742;1.236;2023-02-28T06:35:44;-0.70;99.90
44277;DHT22;29973;43.742;1.236;2023-02-28T06:38:11;-0.60;99.90
44277;DHT22;29973;43.742;1.236;2023-02-28T06:40:37;-0.60;99.90
44277;DHT22;29973;43.742;1.236;2023-02-28T06:43:03;-0.70;99.90
44277;DHT22;29973;43.742;1.236;2023-02-28T06:45:33;-0.80;99.90
44277;DHT22;29973;43.742;1.236;2023-02-28T06:47:58;-0.60;99.90
44277;DHT22;29973;43.742;1.236;2023-02-28T06:50:26;-0.50;99.90
44277;DHT22;29973;43.742;1.236;2023-02-28T06:52:53;-0.40;99.90
44277;DHT22;29973;43.742;1.236;2023-02-28T06:55:20;-0.50;99.90
44277;DHT22;29973;43.742;1.236;2023-02-28T06:57:46;-0.40;99.90
44277;DHT22;29973;43.742;1.236;2023-02-28T07:00:13;-0.30;99.90
44277;DHT22;29973;43.742;1.236;2023-02-28T07:02:38;-0.20;99.90
44277;DHT22;29973;43.742;1.236;2023-02-28T07:05:05;-0.20;99.90
44277;DHT22;29973;43.742;1.236;2023-02-28T07:07:31;-0.10;99.90
44277;DHT22;29973;43.742;1.236;2023-02-28T07:09:57;0.00;99.90
44277;DHT22;29973;43.742;1.236;2023-02-28T07:12:23;0.00;99.90
44277;DHT22;29973;43.742;1.236;2023-02-28T07:14:49;0.00;99.90
44277;DHT22;29973;43.742;1.236;2023-02-28T07:17:15;0.10;99.90
44277;DHT22;29973;43.742;1.236;2023-02-28T07:19:44;0.10;99.90
44277;DHT22;29973;43.742;1.236;2023-02-28T07:22:12;0.10;99.90
44277;DHT22;29973;43.742;1.236;2023-02-28T07:24:38;0.10;99.90
44277;DHT22;29973;43.742;1.236;2023-02-28T07:27:07;0.20;99.90
44277;DHT22;29973;43.742;1.236;2023-02-28T07:29:33;0.30;99.90
44277;DHT22;29973;43.742;1.236;2023-02-28T07:31:58;0.30;99.90
44277;DHT22;29973;43.742;1.236;2023-02-28T07:34:24;0.30;99.90
44277;DHT22;29973;43.742;1.236;2023-02-28T07:36:56;0.30;99.90
44277;DHT22;29973;43.742;1.236;2023-02-28T07:39:22;0.40;99.90
44277;DHT22;29973;43.742;1.236;2023-02-28T07:41:48;0.60;99.90
44277;DHT22;29973;43.742;1.236;2023-02-28T07:44:14;0.70;99.90
44277;DHT22;29973;43.742;1.236;2023-02-28T07:46:40;0.60;99.90
44277;DHT22;29973;43.742;1.236;2023-02-28T07:49:11;0.60;99.90
44277;DHT22;29973;43.742;1.236;2023-02-28T07:51:37;0.60;99.90
44277;DHT22;29973;43.742;1.236;2023-02-28T07:54:03;0.60;99.90
44277;DHT22;29973;43.742;1.236;2023-02-28T07:56:29;0.60;99.90
44277;DHT22;29973;43.742;1.236;2023-02-28T07:58:58;0.60;99.90
44277;DHT22;29973;43.742;1.236;2023-02-28T08:01:24;0.70;99.90
44277;DHT22;29973;43.742;1.236;2023-02-28T08:03:50;0.80;99.90
44277;DHT22;29973;43.742;1.236;2023-02-28T08:06:18;0.90;99.90
44277;DHT22;29973;43.742;1.236;2023-02-28T08:08:45;1.00;99.90
44277;DHT22;29973;43.742;1.236;2023-02-28T08:11:15;1.10;99.90
44277;DHT22;29973;43.742;1.236;2023-02-28T08:13:45;1.10;99.90
44277;DHT22;29973;43.742;1.236;2023-02-28T08:16:12;1.10;99.90
44277;DHT22;29973;43.742;1.236;2023-02-28T08:18:46;1.20;99.90
44277;DHT22;29973;43.742;1.236;2023-02-28T08:21:13;1.20;99.90
44277;DHT22;29973;43.742;1.236;2023-02-28T08:23:38;1.20;99.90
44277;DHT22;29973;43.742;1.236;2023-02-28T08:26:05;1.40;99.90
44277;DHT22;29973;43.742;1.236;2023-02-28T08:28:31;1.50;99.90
44277;DHT22;29973;43.742;1.236;2023-02-28T08:30:57;1.60;99.90
44277;DHT22;29973;43.742;1.236;2023-02-28T08:33:24;1.60;99.90
44277;DHT22;29973;43.742;1.236;2023-02-28T08:35:56;1.60;99.90
44277;DHT22;29973;43.742;1.236;2023-02-28T08:38:27;1.70;99.90
44277;DHT22;29973;43.742;1.236;2023-02-28T08:40:58;1.90;99.90
44277;DHT22;29973;43.742;1.236;2023-02-28T08:43:28;2.20;99.90
44277;DHT22;29973;43.742;1.236;2023-02-28T08:45:55;2.50;99.90
44277;DHT22;29973;43.742;1.236;2023-02-28T08:48:26;2.50;99.90
44277;DHT22;29973;43.742;1.236;2023-02-28T08:50:57;2.40;99.90
44277;DHT22;29973;43.742;1.236;2023-02-28T08:53:23;2.60;99.90
44277;DHT22;29973;43.742;1.236;2023-02-28T08:56:03;3.10;99.90
44277;DHT22;29973;43.742;1.236;2023-02-28T08:58:29;3.40;99.90
44277;DHT22;29973;43.742;1.236;2023-02-28T09:00:55;3.50;99.90
44277;DHT22;29973;43.742;1.236;2023-02-28T09:03:22;3.50;99.90
44277;DHT22;29973;43.742;1.236;2023-02-28T09:06:01;3.70;99.90
44277;DHT22;29973;43.742;1.236;2023-02-28T09:08:29;3.60;99.90
44277;DHT22;29973;43.742;1.236;2023-02-28T09:11:00;3.80;99.90
44277;DHT22;29973;43.742;1.236;2023-02-28T09:13:28;3.90;99.90
44277;DHT22;29973;43.742;1.236;2023-02-28T09:15:56;3.90;99.90
44277;DHT22;29973;43.742;1.236;2023-02-28T09:18:22;4.10;99.90
44277;DHT22;29973;43.742;1.236;2023-02-28T09:20:51;3.90;99.90
44277;DHT22;29973;43.742;1.236;2023-02-28T09:23:17;3.80;99.90
44277;DHT22;29973;43.742;1.236;2023-02-28T09:25:49;3.90;99.90
44277;DHT22;29973;43.742;1.236;2023-02-28T09:28:22;3.50;99.90
44277;DHT22;29973;43.742;1.236;2023-02-28T09:30:50;3.90;99.90
44277;DHT22;29973;43.742;1.236;2023-02-28T09:33:20;3.80;99.90
44277;DHT22;29973;43.742;1.236;2023-02-28T09:35:50;3.90;99.90
44277;DHT22;29973;43.742;1.236;2023-02-28T09:38:22;3.90;99.90
44277;DHT22;29973;43.742;1.236;2023-02-28T09:41:01;3.80;99.90
44277;DHT22;29973;43.742;1.236;2023-02-28T09:43:40;4.10;99.90
44277;DHT22;29973;43.742;1.236;2023-02-28T09:49:04;3.90;99.90
44277;DHT22;29973;43.742;1.236;2023-02-28T09:54:22;4.60;99.90
44277;DHT22;29973;43.742;1.236;2023-02-28T10:00:10;4.10;99.90
44277;DHT22;29973;43.742;1.236;2023-02-28T10:05:35;4.50;99.90
44277;DHT22;29973;43.742;1.236;2023-02-28T10:08:14;4.80;99.90
44277;DHT22;29973;43.742;1.236;2023-02-28T10:11:25;5.60;99.90
44277;DHT22;29973;43.742;1.236;2023-02-28T10:14:21;5.80;99.90
44277;DHT22;29973;43.742;1.236;2023-02-28T10:17:25;7.20;99.90
44277;DHT22;29973;43.742;1.236;2023-02-28T10:24:02;8.30;99.90
44277;DHT22;29973;43.742;1.236;2023-02-28T10:26:56;9.00;99.90
44277;DHT22;29973;43.742;1.236;2023-02-28T10:29:46;7.60;98.90
44277;DHT22;29973;43.742;1.236;2023-02-28T10:32:18;8.70;97.90
44277;DHT22;29973;43.742;1.236;2023-02-28T10:34:50;9.00;96.40
44277;DHT22;29973;43.742;1.236;2023-02-28T10:37:16;7.20;98.60
44277;DHT22;29973;43.742;1.236;2023-02-28T10:39:44;8.90;96.80
44277;DHT22;29973;43.742;1.236;2023-02-28T10:42:26;9.20;93.20
44277;DHT22;29973;43.742;1.236;2023-02-28T10:45:19;9.30;91.10
44277;DHT22;29973;43.742;1.236;2023-02-28T10:48:01;10.00;93.40
44277;DHT22;29973;43.742;1.236;2023-02-28T10:57:21;8.70;90.00
44277;DHT22;29973;43.742;1.236;2023-02-28T11:00:17;11.60;87.20
44277;DHT22;29973;43.742;1.236;2023-02-28T11:02:57;10.90;82.30
44277;DHT22;29973;43.742;1.236;2023-02-28T11:05:27;11.40;80.40
44277;DHT22;29973;43.742;1.236;2023-02-28T11:08:14;11.60;80.80
44277;DHT22;29973;43.742;1.236;2023-02-28T11:10:54;9.40;85.20
44277;DHT22;29973;43.742;1.236;2023-02-28T11:13:24;9.80;79.60
44277;DHT22;29973;43.742;1.236;2023-02-28T11:15:58;10.10;78.00
44277;DHT22;29973;43.742;1.236;2023-02-28T11:18:28;11.30;75.30
44277;DHT22;29973;43.742;1.236;2023-02-28T11:20:56;12.50;72.40
44277;DHT22;29973;43.742;1.236;2023-02-28T11:23:25;11.60;70.90
44277;DHT22;29973;43.742;1.236;2023-02-28T11:25:55;12.30;72.50
44277;DHT22;29973;43.742;1.236;2023-02-28T11:28:30;11.70;73.60
44277;DHT22;29973;43.742;1.236;2023-02-28T11:31:16;10.90;71.90
44277;DHT22;29973;43.742;1.236;2023-02-28T11:33:50;10.60;72.50
44277;DHT22;29973;43.742;1.236;2023-02-28T11:38:54;9.80;65.80
44277;DHT22;29973;43.742;1.236;2023-02-28T11:44:32;11.00;71.40
44277;DHT22;29973;43.742;1.236;2023-02-28T11:47:15;11.30;65.00
44277;DHT22;29973;43.742;1.236;2023-02-28T11:50:04;10.30;73.30
44277;DHT22;29973;43.742;1.236;2023-02-28T11:52:55;8.80;75.20
44277;DHT22;29973;43.742;1.236;2023-02-28T12:11:55;7.70;81.10
44277;DHT22;29973;43.742;1.236;2023-02-28T12:18:03;7.20;79.00
44277;DHT22;29973;43.742;1.236;2023-02-28T12:28:46;6.40;82.30
44277;DHT22;29973;43.742;1.236;2023-02-28T12:33:51;6.40;81.50
44277;DHT22;29973;43.742;1.236;2023-02-28T12:36:19;6.20;79.70
44277;DHT22;29973;43.742;1.236;2023-02-28T12:39:10;6.50;82.50
44277;DHT22;29973;43.742;1.236;2023-02-28T12:42:03;7.50;77.30
44277;DHT22;29973;43.742;1.236;2023-02-28T12:44:47;7.60;76.70
44277;DHT22;29973;43.742;1.236;2023-02-28T12:47:26;6.90;74.40
44277;DHT22;29973;43.742;1.236;2023-02-28T12:50:10;6.50;78.80
44277;DHT22;29973;43.742;1.236;2023-02-28T12:58:39;7.40;77.10
44277;DHT22;29973;43.742;1.236;2023-02-28T13:06:52;7.60;75.50
44277;DHT22;29973;43.742;1.236;2023-02-28T13:09:22;6.50;74.80
44277;DHT22;29973;43.742;1.236;2023-02-28T13:11:50;6.80;78.00
44277;DHT22;29973;43.742;1.236;2023-02-28T13:17:20;6.10;79.70
44277;DHT22;29973;43.742;1.236;2023-02-28T13:19:56;5.80;81.10
44277;DHT22;29973;43.742;1.236;2023-02-28T13:24:55;5.70;83.10
44277;DHT22;29973;43.742;1.236;2023-02-28T13:27:37;5.80;84.30
44277;DHT22;29973;43.742;1.236;2023-02-28T13:31:09;5.70;84.00
44277;DHT22;29973;43.742;1.236;2023-02-28T13:35:45;6.00;83.60
44277;DHT22;29973;43.742;1.236;2023-02-28T13:38:35;5.70;79.90
44277;DHT22;29973;43.742;1.236;2023-02-28T13:44:04;6.10;82.80
44277;DHT22;29973;43.742;1.236;2023-02-28T13:46:34;6.30;82.50
44277;DHT22;29973;43.742;1.236;2023-02-28T13:51:47;5.80;79.70
44277;DHT22;29973;43.742;1.236;2023-02-28T13:57:31;5.90;79.20
44277;DHT22;29973;43.742;1.236;2023-02-28T14:05:21;8.40;71.30
44277;DHT22;29973;43.742;1.236;2023-02-28T14:07:59;7.80;72.70
44277;DHT22;29973;43.742;1.236;2023-02-28T14:10:28;8.00;74.00
44277;DHT22;29973;43.742;1.236;2023-02-28T14:13:01;9.70;68.40
44277;DHT22;29973;43.742;1.236;2023-02-28T14:18:05;7.10;74.70
44277;DHT22;29973;43.742;1.236;2023-02-28T14:20:36;7.00;73.40
44277;DHT22;29973;43.742;1.236;2023-02-28T14:31:24;7.10;73.00
44277;DHT22;29973;43.742;1.236;2023-02-28T14:38:57;6.80;73.50
44277;DHT22;29973;43.742;1.236;2023-02-28T14:41:32;6.50;72.80
44277;DHT22;29973;43.742;1.236;2023-02-28T14:44:01;6.00;73.80
44277;DHT22;29973;43.742;1.236;2023-02-28T14:46:36;6.00;73.30
44277;DHT22;29973;43.742;1.236;2023-02-28T14:49:05;6.90;75.20
44277;DHT22;29973;43.742;1.236;2023-02-28T14:51:32;10.20;69.70
44277;DHT22;29973;43.742;1.236;2023-02-28T14:54:01;9.00;63.80
44277;DHT22;29973;43.742;1.236;2023-02-28T14:56:35;7.70;65.70
44277;DHT22;29973;43.742;1.236;2023-02-28T14:59:03;7.00;70.10
44277;DHT22;29973;43.742;1.236;2023-02-28T15:01:29;7.50;70.60
44277;DHT22;29973;43.742;1.236;2023-02-28T15:04:05;7.00;71.60
44277;DHT22;29973;43.742;1.236;2023-02-28T15:06:32;7.30;72.20
44277;DHT22;29973;43.742;1.236;2023-02-28T15:09:17;6.80;72.40
44277;DHT22;29973;43.742;1.236;2023-02-28T15:11:48;6.80;73.90
44277;DHT22;29973;43.742;1.236;2023-02-28T15:14:20;6.40;71.20
44277;DHT22;29973;43.742;1.236;2023-02-28T15:16:47;6.70;72.70
44277;DHT22;29973;43.742;1.236;2023-02-28T15:19:23;6.20;72.80
44277;DHT22;29973;43.742;1.236;2023-02-28T15:21:57;6.30;72.60
44277;DHT22;29973;43.742;1.236;2023-02-28T15:24:36;6.20;72.10
44277;DHT22;29973;43.742;1.236;2023-02-28T15:27:10;6.00;73.20
44277;DHT22;29973;43.742;1.236;2023-02-28T15:29:44;6.00;74.00
44277;DHT22;29973;43.742;1.236;2023-02-28T15:32:33;5.90;75.10
44277;DHT22;29973;43.742;1.236;2023-02-28T15:35:37;5.80;76.10
44277;DHT22;29973;43.742;1.236;2023-02-28T15:38:21;5.80;76.00
44277;DHT22;29973;43.742;1.236;2023-02-28T15:40:56;5.70;76.70
44277;DHT22;29973;43.742;1.236;2023-02-28T15:48:32;7.60;72.00
44277;DHT22;29973;43.742;1.236;2023-02-28T15:51:19;10.50;68.70
44277;DHT22;29973;43.742;1.236;2023-02-28T15:53:58;8.40;67.90
44277;DHT22;29973;43.742;1.236;2023-02-28T15:56:27;9.90;67.10
44277;DHT22;29973;43.742;1.236;2023-02-28T15:58:55;10.20;58.20
44277;DHT22;29973;43.742;1.236;2023-02-28T16:01:31;7.40;65.40
44277;DHT22;29973;43.742;1.236;2023-02-28T16:04:12;7.30;67.30
44277;DHT22;29973;43.742;1.236;2023-02-28T16:09:08;6.20;71.00
44277;DHT22;29973;43.742;1.236;2023-02-28T16:11:37;6.50;68.70
44277;DHT22;29973;43.742;1.236;2023-02-28T16:14:04;6.30;72.90
44277;DHT22;29973;43.742;1.236;2023-02-28T16:16:31;6.30;75.90
44277;DHT22;29973;43.742;1.236;2023-02-28T16:18:57;7.40;76.90
44277;DHT22;29973;43.742;1.236;2023-02-28T16:21:24;7.40;73.40
44277;DHT22;29973;43.742;1.236;2023-02-28T16:23:50;6.00;76.10
44277;DHT22;29973;43.742;1.236;2023-02-28T16:26:22;5.50;80.10
44277;DHT22;29973;43.742;1.236;2023-02-28T16:28:49;5.70;81.00
44277;DHT22;29973;43.742;1.236;2023-02-28T16:31:16;5.50;81.20
44277;DHT22;29973;43.742;1.236;2023-02-28T16:33:44;5.40;82.50
44277;DHT22;29973;43.742;1.236;2023-02-28T16:36:22;5.20;82.70
44277;DHT22;29973;43.742;1.236;2023-02-28T16:38:51;5.10;83.10
44277;DHT22;29973;43.742;1.236;2023-02-28T16:41:19;5.10;82.00
44277;DHT22;29973;43.742;1.236;2023-02-28T16:43:47;5.10;81.70
44277;DHT22;29973;43.742;1.236;2023-02-28T16:46:14;5.20;81.00
44277;DHT22;29973;43.742;1.236;2023-02-28T16:48:40;5.10;83.20
44277;DHT22;29973;43.742;1.236;2023-02-28T16:51:13;5.00;82.10
44277;DHT22;29973;43.742;1.236;2023-02-28T16:53:38;4.90;81.20
44277;DHT22;29973;43.742;1.236;2023-02-28T16:56:04;4.90;83.10
44277;DHT22;29973;43.742;1.236;2023-02-28T16:58:33;4.80;83.00
44277;DHT22;29973;43.742;1.236;2023-02-28T17:01:02;4.70;83.30
44277;DHT22;29973;43.742;1.236;2023-02-28T17:03:28;4.50;82.40
44277;DHT22;29973;43.742;1.236;2023-02-28T17:05:55;4.50;82.50
44277;DHT22;29973;43.742;1.236;2023-02-28T17:08:20;4.30;82.90
44277;DHT22;29973;43.742;1.236;2023-02-28T17:10:46;4.20;83.30
44277;DHT22;29973;43.742;1.236;2023-02-28T17:13:12;4.00;83.70
44277;DHT22;29973;43.742;1.236;2023-02-28T17:15:38;3.90;83.80
44277;DHT22;29973;43.742;1.236;2023-02-28T17:18:05;3.90;84.20
44277;DHT22;29973;43.742;1.236;2023-02-28T17:20:31;3.80;84.90
44277;DHT22;29973;43.742;1.236;2023-02-28T17:22:57;3.70;84.90
44277;DHT22;29973;43.742;1.236;2023-02-28T17:25:24;3.50;87.40
44277;DHT22;29973;43.742;1.236;2023-02-28T17:27:50;3.50;88.70
44277;DHT22;29973;43.742;1.236;2023-02-28T17:30:22;3.40;89.10
44277;DHT22;29973;43.742;1.236;2023-02-28T17:32:48;3.30;90.10
44277;DHT22;29973;43.742;1.236;2023-02-28T17:35:14;3.20;90.60
44277;DHT22;29973;43.742;1.236;2023-02-28T17:37:43;3.40;89.80
44277;DHT22;29973;43.742;1.236;2023-02-28T17:40:14;3.40;89.10
44277;DHT22;29973;43.742;1.236;2023-02-28T17:42:40;3.40;87.80
44277;DHT22;29973;43.742;1.236;2023-02-28T17:45:20;3.30;89.30
44277;DHT22;29973;43.742;1.236;2023-02-28T17:48:15;3.20;90.40
44277;DHT22;29973;43.742;1.236;2023-02-28T17:50:43;3.20;91.10
44277;DHT22;29973;43.742;1.236;2023-02-28T17:53:09;3.20;90.10
44277;DHT22;29973;43.742;1.236;2023-02-28T17:55:35;3.20;90.40
44277;DHT22;29973;43.742;1.236;2023-02-28T17:58:02;3.20;90.40
44277;DHT22;29973;43.742;1.236;2023-02-28T18:00:31;3.20;90.70
44277;DHT22;29973;43.742;1.236;2023-02-28T18:03:00;3.20;90.80
44277;DHT22;29973;43.742;1.236;2023-02-28T18:05:26;3.10;91.00
44277;DHT22;29973;43.742;1.236;2023-02-28T18:07:52;3.00;91.80
44277;DHT22;29973;43.742;1.236;2023-02-28T18:10:21;2.90;92.90
44277;DHT22;29973;43.742;1.236;2023-02-28T18:12:57;2.80;93.10
44277;DHT22;29973;43.742;1.236;2023-02-28T18:15:35;2.90;93.00
44277;DHT22;29973;43.742;1.236;2023-02-28T18:18:02;2.90;93.40
44277;DHT22;29973;43.742;1.236;2023-02-28T18:20:54;3.00;92.40
44277;DHT22;29973;43.742;1.236;2023-02-28T18:23:38;3.10;92.10
44277;DHT22;29973;43.742;1.236;2023-02-28T18:26:22;3.00;92.10
44277;DHT22;29973;43.742;1.236;2023-02-28T18:29:02;3.00;92.90
44277;DHT22;29973;43.742;1.236;2023-02-28T18:32:13;3.00;93.20
44277;DHT22;29973;43.742;1.236;2023-02-28T18:35:07;2.90;93.30
44277;DHT22;29973;43.742;1.236;2023-02-28T18:37:50;2.90;93.60